sensor_id;sensor_type;location;lat;lon;timestamp;P1;durP1;ratioP1;P2;durP2;ratioP2
5971;SDS011;3012;49.944;8.454;2023-08-12T00:02:00;6.53;;;2.95;;
5971;SDS011;3012;49.944;8.454;2023-08-12T00:07:02;3.30;;;2.90;;
5971;SDS011;3012;49.944;8.454;2023-08-12T00:09:33;4.97;;;2.45;;
5971;SDS011;3012;49.944;8.454;2023-08-12T00:12:05;6.10;;;2.90;;
5971;SDS011;3012;49.944;8.454;2023-08-12T00:14:35;3.45;;;2.28;;
5971;SDS011;3012;49.944;8.454;2023-08-12T00:17:06;5.43;;;2.67;;
5971;SDS011;3012;49.944;8.454;2023-08-12T00:19:39;2.97;;;2.85;;
5971;SDS011;3012;49.944;8.454;2023-08-12T00:22:10;8.13;;;3.22;;
5971;SDS011;3012;49.944;8.454;2023-08-12T00:24:40;5.30;;;2.72;;
5971;SDS011;3012;49.944;8.454;2023-08-12T00:27:11;4.53;;;2.85;;
5971;SDS011;3012;49.944;8.454;2023-08-12T00:29:41;3.63;;;3.33;;
5971;SDS011;3012;49.944;8.454;2023-08-12T00:32:11;4.30;;;2.97;;
5971;SDS011;3012;49.944;8.454;2023-08-12T00:34:43;5.28;;;3.25;;
5971;SDS011;3012;49.944;8.454;2023-08-12T00:37:13;3.50;;;2.78;;
5971;SDS011;3012;49.944;8.454;2023-08-12T00:39:43;4.88;;;2.90;;
5971;SDS011;3012;49.944;8.454;2023-08-12T00:42:13;5.05;;;2.95;;
5971;SDS011;3012;49.944;8.454;2023-08-12T00:44:45;3.40;;;2.80;;
5971;SDS011;3012;49.944;8.454;2023-08-12T00:47:15;6.25;;;2.90;;
5971;SDS011;3012;49.944;8.454;2023-08-12T00:49:47;2.88;;;2.70;;
5971;SDS011;3012;49.944;8.454;2023-08-12T00:52:18;8.13;;;4.15;;
5971;SDS011;3012;49.944;8.454;2023-08-12T00:54:48;3.00;;;2.78;;
5971;SDS011;3012;49.944;8.454;2023-08-12T00:57:18;8.55;;;2.58;;
5971;SDS011;3012;49.944;8.454;2023-08-12T00:59:49;5.10;;;3.28;;
5971;SDS011;3012;49.944;8.454;2023-08-12T01:02:19;7.60;;;3.50;;
5971;SDS011;3012;49.944;8.454;2023-08-12T01:04:52;3.38;;;3.13;;
5971;SDS011;3012;49.944;8.454;2023-08-12T01:07:22;3.63;;;3.00;;
5971;SDS011;3012;49.944;8.454;2023-08-12T01:09:52;6.28;;;3.33;;
5971;SDS011;3012;49.944;8.454;2023-08-12T01:12:24;4.80;;;2.95;;
5971;SDS011;3012;49.944;8.454;2023-08-12T01:15:01;3.13;;;2.92;;
5971;SDS011;3012;49.944;8.454;2023-08-12T01:17:37;5.10;;;2.97;;
5971;SDS011;3012;49.944;8.454;2023-08-12T01:20:11;4.53;;;3.25;;
5971;SDS011;3012;49.944;8.454;2023-08-12T01:22:43;4.03;;;3.03;;
5971;SDS011;3012;49.944;8.454;2023-08-12T01:25:16;4.13;;;3.17;;
5971;SDS011;3012;49.944;8.454;2023-08-12T01:27:46;7.53;;;3.42;;
5971;SDS011;3012;49.944;8.454;2023-08-12T01:30:16;4.68;;;3.40;;
5971;SDS011;3012;49.944;8.454;2023-08-12T01:32:49;4.00;;;3.20;;
5971;SDS011;3012;49.944;8.454;2023-08-12T01:35:24;10.80;;;3.72;;
5971;SDS011;3012;49.944;8.454;2023-08-12T01:37:57;5.13;;;2.80;;
5971;SDS011;3012;49.944;8.454;2023-08-12T01:40:30;3.85;;;3.60;;
5971;SDS011;3012;49.944;8.454;2023-08-12T01:43:01;7.00;;;3.63;;
5971;SDS011;3012;49.944;8.454;2023-08-12T01:45:32;5.00;;;3.58;;
5971;SDS011;3012;49.944;8.454;2023-08-12T01:48:02;8.35;;;4.53;;
5971;SDS011;3012;49.944;8.454;2023-08-12T01:50:33;5.97;;;4.43;;
5971;SDS011;3012;49.944;8.454;2023-08-12T01:53:03;6.93;;;4.32;;
5971;SDS011;3012;49.944;8.454;2023-08-12T01:55:36;6.93;;;4.72;;
5971;SDS011;3012;49.944;8.454;2023-08-12T01:58:06;4.38;;;3.97;;
5971;SDS011;3012;49.944;8.454;2023-08-12T02:00:36;5.03;;;4.38;;
5971;SDS011;3012;49.944;8.454;2023-08-12T02:03:06;8.40;;;4.45;;
5971;SDS011;3012;49.944;8.454;2023-08-12T02:05:37;6.07;;;4.78;;
5971;SDS011;3012;49.944;8.454;2023-08-12T02:08:09;8.07;;;4.45;;
5971;SDS011;3012;49.944;8.454;2023-08-12T02:10:41;8.68;;;4.65;;
5971;SDS011;3012;49.944;8.454;2023-08-12T02:13:12;7.13;;;4.93;;
5971;SDS011;3012;49.944;8.454;2023-08-12T02:15:42;7.50;;;4.55;;
5971;SDS011;3012;49.944;8.454;2023-08-12T02:18:13;10.98;;;4.47;;
5971;SDS011;3012;49.944;8.454;2023-08-12T02:20:43;5.90;;;4.03;;
5971;SDS011;3012;49.944;8.454;2023-08-12T02:23:15;11.40;;;4.18;;
5971;SDS011;3012;49.944;8.454;2023-08-12T02:25:47;7.70;;;4.60;;
5971;SDS011;3012;49.944;8.454;2023-08-12T02:28:17;6.43;;;4.32;;
5971;SDS011;3012;49.944;8.454;2023-08-12T02:30:47;5.97;;;4.22;;
5971;SDS011;3012;49.944;8.454;2023-08-12T02:33:17;11.73;;;4.38;;
5971;SDS011;3012;49.944;8.454;2023-08-12T02:35:48;7.50;;;4.35;;
5971;SDS011;3012;49.944;8.454;2023-08-12T02:38:22;11.82;;;5.07;;
5971;SDS011;3012;49.944;8.454;2023-08-12T02:40:54;5.93;;;4.63;;
5971;SDS011;3012;49.944;8.454;2023-08-12T02:43:24;8.02;;;4.88;;
5971;SDS011;3012;49.944;8.454;2023-08-12T02:45:54;14.13;;;5.50;;
5971;SDS011;3012;49.944;8.454;2023-08-12T02:48:25;9.10;;;4.75;;
5971;SDS011;3012;49.944;8.454;2023-08-12T02:50:55;11.57;;;5.50;;
5971;SDS011;3012;49.944;8.454;2023-08-12T02:53:25;9.10;;;5.80;;
5971;SDS011;3012;49.944;8.454;2023-08-12T02:55:56;8.02;;;5.95;;
5971;SDS011;3012;49.944;8.454;2023-08-12T02:58:27;11.25;;;5.57;;
5971;SDS011;3012;49.944;8.454;2023-08-12T03:00:57;10.38;;;6.05;;
5971;SDS011;3012;49.944;8.454;2023-08-12T03:03:27;8.82;;;6.60;;
5971;SDS011;3012;49.944;8.454;2023-08-12T03:05:56;9.30;;;6.32;;
5971;SDS011;3012;49.944;8.454;2023-08-12T03:08:27;11.40;;;6.63;;
5971;SDS011;3012;49.944;8.454;2023-08-12T03:11:02;10.85;;;6.95;;
5971;SDS011;3012;49.944;8.454;2023-08-12T03:13:32;137.40;;;25.15;;
5971;SDS011;3012;49.944;8.454;2023-08-12T03:16:03;10.18;;;7.25;;
5971;SDS011;3012;49.944;8.454;2023-08-12T03:18:33;53.42;;;9.27;;
5971;SDS011;3012;49.944;8.454;2023-08-12T03:21:05;9.50;;;6.82;;
5971;SDS011;3012;49.944;8.454;2023-08-12T03:23:35;10.15;;;6.10;;
5971;SDS011;3012;49.944;8.454;2023-08-12T03:26:07;12.18;;;5.90;;
5971;SDS011;3012;49.944;8.454;2023-08-12T03:28:38;8.43;;;6.05;;
5971;SDS011;3012;49.944;8.454;2023-08-12T03:31:08;7.57;;;5.45;;
5971;SDS011;3012;49.944;8.454;2023-08-12T03:33:38;10.60;;;5.82;;
5971;SDS011;3012;49.944;8.454;2023-08-12T03:36:08;8.70;;;5.68;;
5971;SDS011;3012;49.944;8.454;2023-08-12T03:38:38;5.53;;;5.00;;
5971;SDS011;3012;49.944;8.454;2023-08-12T03:41:10;6.93;;;6.22;;
5971;SDS011;3012;49.944;8.454;2023-08-12T03:43:41;21.50;;;6.18;;
5971;SDS011;3012;49.944;8.454;2023-08-12T03:46:11;8.57;;;6.25;;
5971;SDS011;3012;49.944;8.454;2023-08-12T03:48:41;8.38;;;7.55;;
5971;SDS011;3012;49.944;8.454;2023-08-12T03:51:11;10.60;;;6.50;;
5971;SDS011;3012;49.944;8.454;2023-08-12T03:53:41;9.93;;;7.53;;
5971;SDS011;3012;49.944;8.454;2023-08-12T03:56:13;10.35;;;7.30;;
5971;SDS011;3012;49.944;8.454;2023-08-12T03:58:43;10.05;;;9.02;;
5971;SDS011;3012;49.944;8.454;2023-08-12T04:01:14;9.05;;;8.05;;
5971;SDS011;3012;49.944;8.454;2023-08-12T04:03:44;9.50;;;8.57;;
5971;SDS011;3012;49.944;8.454;2023-08-12T04:06:14;13.10;;;9.55;;
5971;SDS011;3012;49.944;8.454;2023-08-12T04:08:45;15.40;;;9.95;;
5971;SDS011;3012;49.944;8.454;2023-08-12T04:11:16;12.57;;;9.13;;
5971;SDS011;3012;49.944;8.454;2023-08-12T04:13:46;14.32;;;9.88;;
5971;SDS011;3012;49.944;8.454;2023-08-12T04:16:16;9.88;;;8.85;;
5971;SDS011;3012;49.944;8.454;2023-08-12T04:18:47;11.68;;;9.55;;
5971;SDS011;3012;49.944;8.454;2023-08-12T04:21:17;8.68;;;7.97;;
5971;SDS011;3012;49.944;8.454;2023-08-12T04:23:47;11.25;;;8.98;;
5971;SDS011;3012;49.944;8.454;2023-08-12T04:26:20;12.18;;;10.25;;
5971;SDS011;3012;49.944;8.454;2023-08-12T04:28:50;11.13;;;8.27;;
5971;SDS011;3012;49.944;8.454;2023-08-12T04:31:20;11.43;;;9.20;;
5971;SDS011;3012;49.944;8.454;2023-08-12T04:33:51;12.32;;;9.55;;
5971;SDS011;3012;49.944;8.454;2023-08-12T04:36:22;11.32;;;9.73;;
5971;SDS011;3012;49.944;8.454;2023-08-12T04:38:52;10.07;;;8.82;;
5971;SDS011;3012;49.944;8.454;2023-08-12T04:41:24;14.90;;;9.93;;
5971;SDS011;3012;49.944;8.454;2023-08-12T04:43:54;10.45;;;8.13;;
5971;SDS011;3012;49.944;8.454;2023-08-12T04:46:24;10.25;;;9.25;;
5971;SDS011;3012;49.944;8.454;2023-08-12T04:48:58;12.48;;;9.57;;
5971;SDS011;3012;49.944;8.454;2023-08-12T04:51:30;13.13;;;9.52;;
5971;SDS011;3012;49.944;8.454;2023-08-12T04:54:03;13.10;;;10.13;;
5971;SDS011;3012;49.944;8.454;2023-08-12T04:56:37;12.85;;;9.35;;
5971;SDS011;3012;49.944;8.454;2023-08-12T04:59:09;13.18;;;9.45;;
5971;SDS011;3012;49.944;8.454;2023-08-12T05:01:40;12.77;;;8.85;;
5971;SDS011;3012;49.944;8.454;2023-08-12T05:04:29;9.88;;;9.02;;
5971;SDS011;3012;49.944;8.454;2023-08-12T05:07:00;9.65;;;8.70;;
5971;SDS011;3012;49.944;8.454;2023-08-12T05:09:31;13.52;;;9.32;;
5971;SDS011;3012;49.944;8.454;2023-08-12T05:12:04;10.65;;;9.55;;
5971;SDS011;3012;49.944;8.454;2023-08-12T05:14:35;11.10;;;9.77;;
5971;SDS011;3012;49.944;8.454;2023-08-12T05:17:06;8.93;;;8.15;;
5971;SDS011;3012;49.944;8.454;2023-08-12T05:19:36;10.95;;;8.57;;
5971;SDS011;3012;49.944;8.454;2023-08-12T05:22:06;14.02;;;9.88;;
5971;SDS011;3012;49.944;8.454;2023-08-12T05:24:36;12.02;;;10.38;;
5971;SDS011;3012;49.944;8.454;2023-08-12T05:27:08;11.32;;;9.10;;
5971;SDS011;3012;49.944;8.454;2023-08-12T05:29:38;13.00;;;10.00;;
5971;SDS011;3012;49.944;8.454;2023-08-12T05:32:09;19.45;;;10.75;;
5971;SDS011;3012;49.944;8.454;2023-08-12T05:34:39;11.38;;;9.77;;
5971;SDS011;3012;49.944;8.454;2023-08-12T05:37:10;11.25;;;9.32;;
5971;SDS011;3012;49.944;8.454;2023-08-12T05:39:42;12.30;;;10.45;;
5971;SDS011;3012;49.944;8.454;2023-08-12T05:42:14;10.77;;;9.68;;
5971;SDS011;3012;49.944;8.454;2023-08-12T05:44:44;10.75;;;9.73;;
5971;SDS011;3012;49.944;8.454;2023-08-12T05:47:14;14.95;;;10.07;;
5971;SDS011;3012;49.944;8.454;2023-08-12T05:49:45;15.25;;;8.60;;
5971;SDS011;3012;49.944;8.454;2023-08-12T05:52:16;11.02;;;8.75;;
5971;SDS011;3012;49.944;8.454;2023-08-12T05:54:48;14.38;;;9.68;;
5971;SDS011;3012;49.944;8.454;2023-08-12T05:57:21;12.60;;;9.25;;
5971;SDS011;3012;49.944;8.454;2023-08-12T05:59:55;9.25;;;8.45;;
5971;SDS011;3012;49.944;8.454;2023-08-12T06:02:25;12.75;;;8.77;;
5971;SDS011;3012;49.944;8.454;2023-08-12T06:04:55;9.27;;;8.38;;
5971;SDS011;3012;49.944;8.454;2023-08-12T06:07:26;10.77;;;9.30;;
5971;SDS011;3012;49.944;8.454;2023-08-12T06:09:56;10.23;;;8.73;;
5971;SDS011;3012;49.944;8.454;2023-08-12T06:12:28;10.70;;;8.20;;
5971;SDS011;3012;49.944;8.454;2023-08-12T06:14:58;7.60;;;6.85;;
5971;SDS011;3012;49.944;8.454;2023-08-12T06:17:30;11.50;;;8.60;;
5971;SDS011;3012;49.944;8.454;2023-08-12T06:19:59;9.13;;;8.30;;
5971;SDS011;3012;49.944;8.454;2023-08-12T06:22:30;9.45;;;8.35;;
5971;SDS011;3012;49.944;8.454;2023-08-12T06:25:00;8.18;;;7.30;;
5971;SDS011;3012;49.944;8.454;2023-08-12T06:27:32;9.13;;;7.82;;
5971;SDS011;3012;49.944;8.454;2023-08-12T06:30:02;9.23;;;7.45;;
5971;SDS011;3012;49.944;8.454;2023-08-12T06:32:33;11.10;;;6.93;;
5971;SDS011;3012;49.944;8.454;2023-08-12T06:35:04;11.45;;;8.55;;
5971;SDS011;3012;49.944;8.454;2023-08-12T06:37:35;12.13;;;8.82;;
5971;SDS011;3012;49.944;8.454;2023-08-12T06:40:06;8.32;;;7.50;;
5971;SDS011;3012;49.944;8.454;2023-08-12T06:42:38;10.23;;;9.23;;
5971;SDS011;3012;49.944;8.454;2023-08-12T06:45:09;11.07;;;7.70;;
5971;SDS011;3012;49.944;8.454;2023-08-12T06:47:39;11.38;;;6.47;;
5971;SDS011;3012;49.944;8.454;2023-08-12T06:50:09;7.35;;;6.72;;
5971;SDS011;3012;49.944;8.454;2023-08-12T06:52:39;10.57;;;7.78;;
5971;SDS011;3012;49.944;8.454;2023-08-12T06:55:09;8.52;;;7.72;;
5971;SDS011;3012;49.944;8.454;2023-08-12T06:57:42;10.13;;;7.57;;
5971;SDS011;3012;49.944;8.454;2023-08-12T07:00:13;11.15;;;7.18;;
5971;SDS011;3012;49.944;8.454;2023-08-12T07:02:43;8.85;;;7.22;;
5971;SDS011;3012;49.944;8.454;2023-08-12T07:05:13;9.48;;;8.13;;
5971;SDS011;3012;49.944;8.454;2023-08-12T07:07:45;7.00;;;6.40;;
5971;SDS011;3012;49.944;8.454;2023-08-12T07:10:15;8.38;;;7.15;;
5971;SDS011;3012;49.944;8.454;2023-08-12T07:12:51;8.73;;;6.80;;
5971;SDS011;3012;49.944;8.454;2023-08-12T07:15:21;8.20;;;6.18;;
5971;SDS011;3012;49.944;8.454;2023-08-12T07:17:51;8.07;;;6.85;;
5971;SDS011;3012;49.944;8.454;2023-08-12T07:20:22;6.50;;;5.85;;
5971;SDS011;3012;49.944;8.454;2023-08-12T07:22:52;7.80;;;6.35;;
5971;SDS011;3012;49.944;8.454;2023-08-12T07:25:24;7.53;;;6.05;;
5971;SDS011;3012;49.944;8.454;2023-08-12T07:27:55;7.55;;;6.50;;
5971;SDS011;3012;49.944;8.454;2023-08-12T07:30:25;8.73;;;7.43;;
5971;SDS011;3012;49.944;8.454;2023-08-12T07:32:56;10.05;;;7.15;;
5971;SDS011;3012;49.944;8.454;2023-08-12T07:35:25;9.23;;;6.55;;
5971;SDS011;3012;49.944;8.454;2023-08-12T07:37:55;7.28;;;6.68;;
5971;SDS011;3012;49.944;8.454;2023-08-12T07:40:25;10.43;;;7.53;;
5971;SDS011;3012;49.944;8.454;2023-08-12T07:42:58;7.03;;;6.10;;
5971;SDS011;3012;49.944;8.454;2023-08-12T07:45:29;8.45;;;6.65;;
5971;SDS011;3012;49.944;8.454;2023-08-12T07:47:59;6.05;;;5.55;;
5971;SDS011;3012;49.944;8.454;2023-08-12T07:50:29;7.40;;;6.78;;
5971;SDS011;3012;49.944;8.454;2023-08-12T07:53:00;5.93;;;5.40;;
5971;SDS011;3012;49.944;8.454;2023-08-12T07:55:30;9.88;;;7.30;;
5971;SDS011;3012;49.944;8.454;2023-08-12T07:58:02;8.93;;;6.10;;
5971;SDS011;3012;49.944;8.454;2023-08-12T08:00:37;13.23;;;6.90;;
5971;SDS011;3012;49.944;8.454;2023-08-12T08:03:08;6.82;;;6.13;;
5971;SDS011;3012;49.944;8.454;2023-08-12T08:05:39;14.63;;;6.45;;
5971;SDS011;3012;49.944;8.454;2023-08-12T08:08:12;8.00;;;6.50;;
5971;SDS011;3012;49.944;8.454;2023-08-12T08:10:42;14.40;;;6.70;;
5971;SDS011;3012;49.944;8.454;2023-08-12T08:13:15;8.85;;;6.57;;
5971;SDS011;3012;49.944;8.454;2023-08-12T08:15:45;8.23;;;5.80;;
5971;SDS011;3012;49.944;8.454;2023-08-12T08:18:16;6.75;;;5.70;;
5971;SDS011;3012;49.944;8.454;2023-08-12T08:20:51;7.75;;;6.80;;
5971;SDS011;3012;49.944;8.454;2023-08-12T08:23:21;13.40;;;7.25;;
5971;SDS011;3012;49.944;8.454;2023-08-12T08:25:51;7.80;;;6.50;;
5971;SDS011;3012;49.944;8.454;2023-08-12T08:28:24;6.97;;;6.22;;
5971;SDS011;3012;49.944;8.454;2023-08-12T08:30:54;9.73;;;6.47;;
5971;SDS011;3012;49.944;8.454;2023-08-12T08:33:25;6.20;;;5.65;;
5971;SDS011;3012;49.944;8.454;2023-08-12T08:35:56;11.68;;;6.90;;
5971;SDS011;3012;49.944;8.454;2023-08-12T08:38:28;7.65;;;5.65;;
5971;SDS011;3012;49.944;8.454;2023-08-12T08:40:59;8.02;;;5.85;;
5971;SDS011;3012;49.944;8.454;2023-08-12T08:43:32;5.40;;;4.90;;
5971;SDS011;3012;49.944;8.454;2023-08-12T08:46:05;7.32;;;4.70;;
5971;SDS011;3012;49.944;8.454;2023-08-12T08:48:36;8.55;;;5.68;;
5971;SDS011;3012;49.944;8.454;2023-08-12T08:51:07;5.00;;;4.55;;
5971;SDS011;3012;49.944;8.454;2023-08-12T08:53:38;5.15;;;4.65;;
5971;SDS011;3012;49.944;8.454;2023-08-12T08:56:11;4.85;;;4.53;;
5971;SDS011;3012;49.944;8.454;2023-08-12T08:58:43;9.15;;;4.82;;
5971;SDS011;3012;49.944;8.454;2023-08-12T09:01:13;7.45;;;5.75;;
5971;SDS011;3012;49.944;8.454;2023-08-12T09:03:45;6.57;;;4.03;;
5971;SDS011;3012;49.944;8.454;2023-08-12T09:06:16;4.43;;;4.07;;
5971;SDS011;3012;49.944;8.454;2023-08-12T09:08:47;8.48;;;4.43;;
5971;SDS011;3012;49.944;8.454;2023-08-12T09:11:20;6.30;;;3.90;;
5971;SDS011;3012;49.944;8.454;2023-08-12T09:13:52;7.65;;;4.20;;
5971;SDS011;3012;49.944;8.454;2023-08-12T09:16:22;4.57;;;4.28;;
5971;SDS011;3012;49.944;8.454;2023-08-12T09:18:54;3.63;;;3.42;;
5971;SDS011;3012;49.944;8.454;2023-08-12T09:21:25;4.22;;;3.83;;
5971;SDS011;3012;49.944;8.454;2023-08-12T09:23:55;4.43;;;3.90;;
5971;SDS011;3012;49.944;8.454;2023-08-12T09:26:25;6.22;;;4.50;;
5971;SDS011;3012;49.944;8.454;2023-08-12T09:28:56;4.93;;;3.35;;
5971;SDS011;3012;49.944;8.454;2023-08-12T09:31:29;4.22;;;3.90;;
5971;SDS011;3012;49.944;8.454;2023-08-12T09:34:03;3.88;;;3.53;;
5971;SDS011;3012;49.944;8.454;2023-08-12T09:36:35;4.07;;;3.75;;
5971;SDS011;3012;49.944;8.454;2023-08-12T09:39:06;4.72;;;4.32;;
5971;SDS011;3012;49.944;8.454;2023-08-12T09:41:37;7.13;;;4.50;;
5971;SDS011;3012;49.944;8.454;2023-08-12T09:44:09;5.60;;;4.07;;
5971;SDS011;3012;49.944;8.454;2023-08-12T09:46:39;3.67;;;3.38;;
5971;SDS011;3012;49.944;8.454;2023-08-12T09:49:09;4.10;;;3.80;;
5971;SDS011;3012;49.944;8.454;2023-08-12T09:51:39;3.30;;;3.10;;
5971;SDS011;3012;49.944;8.454;2023-08-12T09:54:11;4.25;;;3.33;;
5971;SDS011;3012;49.944;8.454;2023-08-12T09:56:43;4.00;;;3.70;;
5971;SDS011;3012;49.944;8.454;2023-08-12T09:59:18;5.03;;;3.45;;
5971;SDS011;3012;49.944;8.454;2023-08-12T10:01:51;3.30;;;3.10;;
5971;SDS011;3012;49.944;8.454;2023-08-12T10:04:23;6.88;;;3.40;;
5971;SDS011;3012;49.944;8.454;2023-08-12T10:06:58;4.65;;;3.90;;
5971;SDS011;3012;49.944;8.454;2023-08-12T10:09:31;4.32;;;3.88;;
5971;SDS011;3012;49.944;8.454;2023-08-12T10:12:03;4.28;;;3.97;;
5971;SDS011;3012;49.944;8.454;2023-08-12T10:14:36;5.18;;;4.32;;
5971;SDS011;3012;49.944;8.454;2023-08-12T10:17:07;9.77;;;5.35;;
5971;SDS011;3012;49.944;8.454;2023-08-12T10:19:43;5.72;;;4.95;;
5971;SDS011;3012;49.944;8.454;2023-08-12T10:22:14;4.60;;;3.88;;
5971;SDS011;3012;49.944;8.454;2023-08-12T10:24:44;7.85;;;4.30;;
5971;SDS011;3012;49.944;8.454;2023-08-12T10:27:16;10.45;;;4.82;;
5971;SDS011;3012;49.944;8.454;2023-08-12T10:29:48;8.82;;;5.63;;
5971;SDS011;3012;49.944;8.454;2023-08-12T10:32:19;8.35;;;5.20;;
5971;SDS011;3012;49.944;8.454;2023-08-12T10:34:53;7.03;;;4.88;;
5971;SDS011;3012;49.944;8.454;2023-08-12T10:37:25;6.25;;;5.68;;
5971;SDS011;3012;49.944;8.454;2023-08-12T10:39:55;7.43;;;5.22;;
5971;SDS011;3012;49.944;8.454;2023-08-12T10:42:41;7.88;;;5.10;;
5971;SDS011;3012;49.944;8.454;2023-08-12T10:45:14;5.18;;;4.80;;
5971;SDS011;3012;49.944;8.454;2023-08-12T10:47:48;6.47;;;4.93;;
5971;SDS011;3012;49.944;8.454;2023-08-12T10:50:43;4.90;;;4.07;;
5971;SDS011;3012;49.944;8.454;2023-08-12T10:53:21;7.10;;;4.55;;
5971;SDS011;3012;49.944;8.454;2023-08-12T10:55:54;6.05;;;4.80;;
5971;SDS011;3012;49.944;8.454;2023-08-12T10:58:26;6.22;;;4.82;;
5971;SDS011;3012;49.944;8.454;2023-08-12T11:00:59;8.02;;;5.57;;
5971;SDS011;3012;49.944;8.454;2023-08-12T11:03:31;13.63;;;5.85;;
5971;SDS011;3012;49.944;8.454;2023-08-12T11:06:05;7.68;;;4.93;;
5971;SDS011;3012;49.944;8.454;2023-08-12T11:08:35;5.43;;;4.28;;
5971;SDS011;3012;49.944;8.454;2023-08-12T11:11:10;7.35;;;4.40;;
5971;SDS011;3012;49.944;8.454;2023-08-12T11:13:52;7.57;;;4.13;;
5971;SDS011;3012;49.944;8.454;2023-08-12T11:16:34;4.38;;;4.07;;
5971;SDS011;3012;49.944;8.454;2023-08-12T11:19:05;4.28;;;3.88;;
5971;SDS011;3012;49.944;8.454;2023-08-12T11:21:36;4.45;;;3.72;;
5971;SDS011;3012;49.944;8.454;2023-08-12T11:24:07;4.13;;;3.25;;
5971;SDS011;3012;49.944;8.454;2023-08-12T11:26:39;3.38;;;3.08;;
5971;SDS011;3012;49.944;8.454;2023-08-12T11:29:11;3.95;;;2.60;;
5971;SDS011;3012;49.944;8.454;2023-08-12T11:31:44;2.90;;;2.80;;
5971;SDS011;3012;49.944;8.454;2023-08-12T11:34:15;4.38;;;2.85;;
5971;SDS011;3012;49.944;8.454;2023-08-12T11:36:45;2.88;;;2.58;;
5971;SDS011;3012;49.944;8.454;2023-08-12T11:39:17;4.28;;;2.63;;
5971;SDS011;3012;49.944;8.454;2023-08-12T11:41:48;2.58;;;2.33;;
5971;SDS011;3012;49.944;8.454;2023-08-12T11:44:22;2.65;;;2.42;;
5971;SDS011;3012;49.944;8.454;2023-08-12T11:46:55;4.10;;;2.85;;
5971;SDS011;3012;49.944;8.454;2023-08-12T11:49:25;2.53;;;2.33;;
5971;SDS011;3012;49.944;8.454;2023-08-12T11:51:56;4.03;;;2.13;;
5971;SDS011;3012;49.944;8.454;2023-08-12T11:54:26;2.15;;;2.05;;
5971;SDS011;3012;49.944;8.454;2023-08-12T11:56:57;2.33;;;2.25;;
5971;SDS011;3012;49.944;8.454;2023-08-12T11:59:28;2.42;;;2.22;;
5971;SDS011;3012;49.944;8.454;2023-08-12T12:02:01;2.28;;;2.00;;
5971;SDS011;3012;49.944;8.454;2023-08-12T12:04:31;1.77;;;1.52;;
5971;SDS011;3012;49.944;8.454;2023-08-12T12:07:02;2.05;;;1.95;;
5971;SDS011;3012;49.944;8.454;2023-08-12T12:09:33;2.08;;;1.80;;
5971;SDS011;3012;49.944;8.454;2023-08-12T12:12:03;2.35;;;1.52;;
5971;SDS011;3012;49.944;8.454;2023-08-12T12:14:35;2.88;;;1.38;;
5971;SDS011;3012;49.944;8.454;2023-08-12T12:17:08;1.80;;;1.70;;
5971;SDS011;3012;49.944;8.454;2023-08-12T12:19:40;2.42;;;1.42;;
5971;SDS011;3012;49.944;8.454;2023-08-12T12:22:12;2.47;;;1.67;;
5971;SDS011;3012;49.944;8.454;2023-08-12T12:24:46;3.00;;;1.83;;
5971;SDS011;3012;49.944;8.454;2023-08-12T12:27:22;1.58;;;1.48;;
5971;SDS011;3012;49.944;8.454;2023-08-12T12:30:02;1.20;;;1.10;;
5971;SDS011;3012;49.944;8.454;2023-08-12T12:32:46;1.70;;;0.90;;
5971;SDS011;3012;49.944;8.454;2023-08-12T12:35:17;1.02;;;1.02;;
5971;SDS011;3012;49.944;8.454;2023-08-12T12:37:47;0.95;;;0.80;;
5971;SDS011;3012;49.944;8.454;2023-08-12T12:40:18;1.33;;;0.73;;
5971;SDS011;3012;49.944;8.454;2023-08-12T12:42:49;0.88;;;0.80;;
5971;SDS011;3012;49.944;8.454;2023-08-12T12:45:19;1.55;;;0.80;;
5971;SDS011;3012;49.944;8.454;2023-08-12T12:47:51;1.30;;;0.80;;
5971;SDS011;3012;49.944;8.454;2023-08-12T12:50:27;3.50;;;0.75;;
5971;SDS011;3012;49.944;8.454;2023-08-12T12:52:59;1.58;;;0.80;;
5971;SDS011;3012;49.944;8.454;2023-08-12T12:55:29;1.38;;;0.80;;
5971;SDS011;3012;49.944;8.454;2023-08-12T12:57:59;4.70;;;0.95;;
5971;SDS011;3012;49.944;8.454;2023-08-12T13:00:33;1.08;;;1.08;;
5971;SDS011;3012;49.944;8.454;2023-08-12T13:03:05;0.80;;;0.80;;
5971;SDS011;3012;49.944;8.454;2023-08-12T13:05:35;0.65;;;0.63;;
5971;SDS011;3012;49.944;8.454;2023-08-12T13:08:06;0.70;;;0.70;;
5971;SDS011;3012;49.944;8.454;2023-08-12T13:10:36;0.93;;;0.88;;
5971;SDS011;3012;49.944;8.454;2023-08-12T13:13:06;1.88;;;0.73;;
5971;SDS011;3012;49.944;8.454;2023-08-12T13:15:36;2.83;;;0.70;;
5971;SDS011;3012;49.944;8.454;2023-08-12T13:18:08;0.50;;;0.50;;
5971;SDS011;3012;49.944;8.454;2023-08-12T13:20:38;1.98;;;0.52;;
5971;SDS011;3012;49.944;8.454;2023-08-12T13:23:09;0.75;;;0.50;;
5971;SDS011;3012;49.944;8.454;2023-08-12T13:25:39;0.57;;;0.40;;
5971;SDS011;3012;49.944;8.454;2023-08-12T13:28:09;1.45;;;0.50;;
5971;SDS011;3012;49.944;8.454;2023-08-12T13:30:39;1.00;;;0.80;;
5971;SDS011;3012;49.944;8.454;2023-08-12T13:33:11;1.10;;;0.88;;
5971;SDS011;3012;49.944;8.454;2023-08-12T13:35:41;0.75;;;0.70;;
5971;SDS011;3012;49.944;8.454;2023-08-12T13:38:11;2.05;;;0.68;;
5971;SDS011;3012;49.944;8.454;2023-08-12T13:40:41;1.27;;;0.70;;
5971;SDS011;3012;49.944;8.454;2023-08-12T13:43:12;0.70;;;0.70;;
5971;SDS011;3012;49.944;8.454;2023-08-12T13:45:42;2.17;;;0.70;;
5971;SDS011;3012;49.944;8.454;2023-08-12T13:48:14;1.23;;;0.90;;
5971;SDS011;3012;49.944;8.454;2023-08-12T13:50:44;0.80;;;0.75;;
5971;SDS011;3012;49.944;8.454;2023-08-12T13:53:16;2.55;;;0.70;;
5971;SDS011;3012;49.944;8.454;2023-08-12T13:55:46;1.80;;;1.00;;
5971;SDS011;3012;49.944;8.454;2023-08-12T13:58:17;3.53;;;1.10;;
5971;SDS011;3012;49.944;8.454;2023-08-12T14:00:47;2.13;;;0.75;;
5971;SDS011;3012;49.944;8.454;2023-08-12T14:03:18;3.03;;;1.10;;
5971;SDS011;3012;49.944;8.454;2023-08-12T14:05:49;1.25;;;1.15;;
5971;SDS011;3012;49.944;8.454;2023-08-12T14:08:19;1.13;;;1.08;;
5971;SDS011;3012;49.944;8.454;2023-08-12T14:10:50;3.20;;;1.08;;
5971;SDS011;3012;49.944;8.454;2023-08-12T14:13:19;2.22;;;1.10;;
5971;SDS011;3012;49.944;8.454;2023-08-12T14:15:50;3.22;;;1.33;;
5971;SDS011;3012;49.944;8.454;2023-08-12T14:18:23;1.35;;;1.25;;
5971;SDS011;3012;49.944;8.454;2023-08-12T14:20:53;3.00;;;1.48;;
5971;SDS011;3012;49.944;8.454;2023-08-12T14:23:24;1.05;;;0.80;;
5971;SDS011;3012;49.944;8.454;2023-08-12T14:25:54;3.60;;;1.13;;
5971;SDS011;3012;49.944;8.454;2023-08-12T14:28:24;3.20;;;1.25;;
5971;SDS011;3012;49.944;8.454;2023-08-12T14:30:55;1.30;;;1.17;;
5971;SDS011;3012;49.944;8.454;2023-08-12T14:33:28;1.27;;;1.13;;
5971;SDS011;3012;49.944;8.454;2023-08-12T14:35:58;1.15;;;1.15;;
5971;SDS011;3012;49.944;8.454;2023-08-12T14:38:28;1.13;;;1.08;;
5971;SDS011;3012;49.944;8.454;2023-08-12T14:41:00;2.25;;;1.65;;
5971;SDS011;3012;49.944;8.454;2023-08-12T14:43:30;0.80;;;0.80;;
5971;SDS011;3012;49.944;8.454;2023-08-12T14:46:03;0.98;;;0.90;;
5971;SDS011;3012;49.944;8.454;2023-08-12T14:48:35;3.28;;;1.02;;
5971;SDS011;3012;49.944;8.454;2023-08-12T14:51:05;2.85;;;1.13;;
5971;SDS011;3012;49.944;8.454;2023-08-12T14:53:35;1.75;;;1.08;;
5971;SDS011;3012;49.944;8.454;2023-08-12T14:56:05;1.40;;;1.20;;
5971;SDS011;3012;49.944;8.454;2023-08-12T14:58:37;3.58;;;1.38;;
5971;SDS011;3012;49.944;8.454;2023-08-12T15:01:08;1.80;;;1.10;;
5971;SDS011;3012;49.944;8.454;2023-08-12T15:03:39;6.30;;;1.17;;
5971;SDS011;3012;49.944;8.454;2023-08-12T15:06:10;2.38;;;1.30;;
5971;SDS011;3012;49.944;8.454;2023-08-12T15:08:42;2.13;;;1.27;;
5971;SDS011;3012;49.944;8.454;2023-08-12T15:11:12;1.63;;;1.13;;
5971;SDS011;3012;49.944;8.454;2023-08-12T15:13:42;2.15;;;1.40;;
5971;SDS011;3012;49.944;8.454;2023-08-12T15:16:12;2.53;;;1.33;;
5971;SDS011;3012;49.944;8.454;2023-08-12T15:18:44;2.10;;;1.33;;
5971;SDS011;3012;49.944;8.454;2023-08-12T15:21:15;1.50;;;1.38;;
5971;SDS011;3012;49.944;8.454;2023-08-12T15:23:44;1.40;;;1.40;;
5971;SDS011;3012;49.944;8.454;2023-08-12T15:26:15;4.45;;;1.63;;
5971;SDS011;3012;49.944;8.454;2023-08-12T15:28:45;1.85;;;1.17;;
5971;SDS011;3012;49.944;8.454;2023-08-12T15:31:15;1.10;;;0.98;;
5971;SDS011;3012;49.944;8.454;2023-08-12T15:33:46;1.30;;;1.30;;
5971;SDS011;3012;49.944;8.454;2023-08-12T15:36:18;1.48;;;1.38;;
5971;SDS011;3012;49.944;8.454;2023-08-12T15:38:48;1.60;;;1.50;;
5971;SDS011;3012;49.944;8.454;2023-08-12T15:41:18;2.50;;;1.20;;